sensor_id;sensor_type;location;lat;lon;timestamp;P1;durP1;ratioP1;P2;durP2;ratioP2
59872;SDS011;50750;51.636;4.948;2023-04-25T00:01:21;4.40;;;1.90;;
59872;SDS011;50750;51.636;4.948;2023-04-25T00:03:50;3.50;;;1.50;;
59872;SDS011;50750;51.636;4.948;2023-04-25T00:06:17;4.00;;;1.70;;
59872;SDS011;50750;51.636;4.948;2023-04-25T00:08:44;3.70;;;1.70;;
59872;SDS011;50750;51.636;4.948;2023-04-25T00:11:10;3.70;;;1.60;;
59872;SDS011;50750;51.636;4.948;2023-04-25T00:13:37;3.70;;;1.60;;
59872;SDS011;50750;51.636;4.948;2023-04-25T00:16:03;2.90;;;1.60;;
59872;SDS011;50750;51.636;4.948;2023-04-25T00:18:30;3.40;;;1.60;;
59872;SDS011;50750;51.636;4.948;2023-04-25T00:20:59;3.20;;;1.50;;
59872;SDS011;50750;51.636;4.948;2023-04-25T00:23:26;4.00;;;2.00;;
59872;SDS011;50750;51.636;4.948;2023-04-25T00:25:52;5.50;;;1.90;;
59872;SDS011;50750;51.636;4.948;2023-04-25T00:28:19;5.00;;;1.60;;
59872;SDS011;50750;51.636;4.948;2023-04-25T00:30:45;4.20;;;1.70;;
59872;SDS011;50750;51.636;4.948;2023-04-25T00:33:12;4.70;;;1.50;;
59872;SDS011;50750;51.636;4.948;2023-04-25T00:35:39;3.70;;;1.60;;
59872;SDS011;50750;51.636;4.948;2023-04-25T00:38:06;4.90;;;1.80;;
59872;SDS011;50750;51.636;4.948;2023-04-25T00:40:32;4.00;;;1.70;;
59872;SDS011;50750;51.636;4.948;2023-04-25T00:42:59;5.00;;;1.90;;
59872;SDS011;50750;51.636;4.948;2023-04-25T00:45:27;4.60;;;2.00;;
59872;SDS011;50750;51.636;4.948;2023-04-25T00:47:57;4.20;;;1.60;;
59872;SDS011;50750;51.636;4.948;2023-04-25T00:50:24;6.50;;;1.70;;
59872;SDS011;50750;51.636;4.948;2023-04-25T00:52:51;3.70;;;1.60;;
59872;SDS011;50750;51.636;4.948;2023-04-25T00:55:18;4.10;;;1.60;;
59872;SDS011;50750;51.636;4.948;2023-04-25T00:57:45;3.80;;;1.70;;
59872;SDS011;50750;51.636;4.948;2023-04-25T01:00:16;3.80;;;1.80;;
59872;SDS011;50750;51.636;4.948;2023-04-25T01:02:44;4.70;;;1.70;;
59872;SDS011;50750;51.636;4.948;2023-04-25T01:05:11;3.80;;;1.70;;
59872;SDS011;50750;51.636;4.948;2023-04-25T01:07:38;3.90;;;1.70;;
59872;SDS011;50750;51.636;4.948;2023-04-25T01:10:05;3.10;;;1.60;;
59872;SDS011;50750;51.636;4.948;2023-04-25T01:12:33;5.10;;;1.70;;
59872;SDS011;50750;51.636;4.948;2023-04-25T01:15:01;3.90;;;1.50;;
59872;SDS011;50750;51.636;4.948;2023-04-25T01:17:28;4.40;;;1.90;;
59872;SDS011;50750;51.636;4.948;2023-04-25T01:19:55;5.10;;;1.70;;
59872;SDS011;50750;51.636;4.948;2023-04-25T01:22:21;3.10;;;1.40;;
59872;SDS011;50750;51.636;4.948;2023-04-25T01:24:48;3.90;;;1.50;;
59872;SDS011;50750;51.636;4.948;2023-04-25T01:27:15;5.00;;;1.60;;
59872;SDS011;50750;51.636;4.948;2023-04-25T01:29:43;5.80;;;1.90;;
59872;SDS011;50750;51.636;4.948;2023-04-25T01:32:10;4.30;;;1.50;;
59872;SDS011;50750;51.636;4.948;2023-04-25T01:34:37;4.20;;;1.60;;
59872;SDS011;50750;51.636;4.948;2023-04-25T01:37:03;3.50;;;1.60;;
59872;SDS011;50750;51.636;4.948;2023-04-25T01:39:30;3.00;;;1.60;;
59872;SDS011;50750;51.636;4.948;2023-04-25T01:41:56;3.10;;;1.50;;
59872;SDS011;50750;51.636;4.948;2023-04-25T01:44:23;5.20;;;1.50;;
59872;SDS011;50750;51.636;4.948;2023-04-25T01:46:50;4.80;;;1.60;;
59872;SDS011;50750;51.636;4.948;2023-04-25T01:49:16;3.20;;;1.50;;
59872;SDS011;50750;51.636;4.948;2023-04-25T01:51:43;3.60;;;1.60;;
59872;SDS011;50750;51.636;4.948;2023-04-25T01:54:10;3.70;;;1.50;;
59872;SDS011;50750;51.636;4.948;2023-04-25T01:56:37;4.30;;;1.70;;
59872;SDS011;50750;51.636;4.948;2023-04-25T01:59:05;4.60;;;1.70;;
59872;SDS011;50750;51.636;4.948;2023-04-25T02:01:32;3.60;;;1.30;;
59872;SDS011;50750;51.636;4.948;2023-04-25T02:03:59;5.10;;;1.70;;
59872;SDS011;50750;51.636;4.948;2023-04-25T02:06:25;3.70;;;1.70;;
59872;SDS011;50750;51.636;4.948;2023-04-25T02:08:52;4.00;;;1.50;;
59872;SDS011;50750;51.636;4.948;2023-04-25T02:11:18;3.90;;;1.70;;
59872;SDS011;50750;51.636;4.948;2023-04-25T02:13:45;3.80;;;1.60;;
59872;SDS011;50750;51.636;4.948;2023-04-25T02:16:11;3.70;;;1.50;;
59872;SDS011;50750;51.636;4.948;2023-04-25T02:18:39;3.50;;;1.50;;
59872;SDS011;50750;51.636;4.948;2023-04-25T02:21:05;4.70;;;1.60;;
59872;SDS011;50750;51.636;4.948;2023-04-25T02:23:32;3.90;;;1.70;;
59872;SDS011;50750;51.636;4.948;2023-04-25T02:25:59;4.30;;;1.90;;
59872;SDS011;50750;51.636;4.948;2023-04-25T02:28:25;3.50;;;1.40;;
59872;SDS011;50750;51.636;4.948;2023-04-25T02:30:52;4.60;;;1.60;;
59872;SDS011;50750;51.636;4.948;2023-04-25T02:33:18;3.90;;;1.50;;
59872;SDS011;50750;51.636;4.948;2023-04-25T02:35:47;4.00;;;1.70;;
59872;SDS011;50750;51.636;4.948;2023-04-25T02:38:14;4.80;;;1.60;;
59872;SDS011;50750;51.636;4.948;2023-04-25T02:40:40;5.80;;;1.70;;
59872;SDS011;50750;51.636;4.948;2023-04-25T02:43:07;4.90;;;1.70;;
59872;SDS011;50750;51.636;4.948;2023-04-25T02:45:34;4.10;;;1.80;;
59872;SDS011;50750;51.636;4.948;2023-04-25T02:48:02;3.40;;;1.40;;
59872;SDS011;50750;51.636;4.948;2023-04-25T02:50:28;4.90;;;1.70;;
59872;SDS011;50750;51.636;4.948;2023-04-25T02:52:55;4.60;;;1.70;;
59872;SDS011;50750;51.636;4.948;2023-04-25T02:55:21;4.20;;;1.60;;
59872;SDS011;50750;51.636;4.948;2023-04-25T02:57:48;5.50;;;1.70;;
59872;SDS011;50750;51.636;4.948;2023-04-25T03:00:15;2.90;;;1.40;;
59872;SDS011;50750;51.636;4.948;2023-04-25T03:02:41;3.70;;;1.70;;
59872;SDS011;50750;51.636;4.948;2023-04-25T03:05:08;4.90;;;1.60;;
59872;SDS011;50750;51.636;4.948;2023-04-25T03:07:35;4.80;;;1.70;;
59872;SDS011;50750;51.636;4.948;2023-04-25T03:10:01;4.50;;;1.50;;
59872;SDS011;50750;51.636;4.948;2023-04-25T03:12:28;4.80;;;2.00;;
59872;SDS011;50750;51.636;4.948;2023-04-25T03:14:54;5.20;;;1.50;;
59872;SDS011;50750;51.636;4.948;2023-04-25T03:17:21;4.30;;;1.70;;
59872;SDS011;50750;51.636;4.948;2023-04-25T03:19:47;3.40;;;1.50;;
59872;SDS011;50750;51.636;4.948;2023-04-25T03:22:14;3.60;;;1.40;;
59872;SDS011;50750;51.636;4.948;2023-04-25T03:24:41;4.60;;;1.80;;
59872;SDS011;50750;51.636;4.948;2023-04-25T03:27:07;4.00;;;1.50;;
59872;SDS011;50750;51.636;4.948;2023-04-25T03:29:34;4.00;;;1.70;;
59872;SDS011;50750;51.636;4.948;2023-04-25T03:32:01;4.80;;;1.70;;
59872;SDS011;50750;51.636;4.948;2023-04-25T03:34:28;3.80;;;1.70;;
59872;SDS011;50750;51.636;4.948;2023-04-25T03:36:55;4.60;;;1.80;;
59872;SDS011;50750;51.636;4.948;2023-04-25T03:39:21;3.00;;;1.30;;
59872;SDS011;50750;51.636;4.948;2023-04-25T03:41:48;3.70;;;1.50;;
59872;SDS011;50750;51.636;4.948;2023-04-25T03:44:14;4.10;;;1.50;;
59872;SDS011;50750;51.636;4.948;2023-04-25T03:46:41;6.30;;;1.70;;
59872;SDS011;50750;51.636;4.948;2023-04-25T03:49:07;4.70;;;1.50;;
59872;SDS011;50750;51.636;4.948;2023-04-25T03:51:34;3.90;;;1.60;;
59872;SDS011;50750;51.636;4.948;2023-04-25T03:54:01;3.70;;;1.60;;
59872;SDS011;50750;51.636;4.948;2023-04-25T03:56:27;4.50;;;1.80;;
59872;SDS011;50750;51.636;4.948;2023-04-25T03:58:54;4.10;;;1.60;;
59872;SDS011;50750;51.636;4.948;2023-04-25T04:01:20;4.80;;;1.70;;
59872;SDS011;50750;51.636;4.948;2023-04-25T04:03:47;5.40;;;1.90;;
59872;SDS011;50750;51.636;4.948;2023-04-25T04:06:13;5.40;;;1.40;;
59872;SDS011;50750;51.636;4.948;2023-04-25T04:08:41;3.80;;;1.60;;
59872;SDS011;50750;51.636;4.948;2023-04-25T04:11:07;3.30;;;1.40;;
59872;SDS011;50750;51.636;4.948;2023-04-25T04:13:34;3.40;;;1.40;;
59872;SDS011;50750;51.636;4.948;2023-04-25T04:16:00;4.10;;;1.50;;
59872;SDS011;50750;51.636;4.948;2023-04-25T04:18:27;3.90;;;1.60;;
59872;SDS011;50750;51.636;4.948;2023-04-25T04:20:53;4.00;;;1.60;;
59872;SDS011;50750;51.636;4.948;2023-04-25T04:23:20;3.80;;;1.60;;
59872;SDS011;50750;51.636;4.948;2023-04-25T04:25:48;3.10;;;1.10;;
59872;SDS011;50750;51.636;4.948;2023-04-25T04:28:15;4.30;;;1.70;;
59872;SDS011;50750;51.636;4.948;2023-04-25T04:30:42;4.70;;;1.40;;
59872;SDS011;50750;51.636;4.948;2023-04-25T04:33:12;5.30;;;1.60;;
59872;SDS011;50750;51.636;4.948;2023-04-25T04:35:41;3.60;;;1.60;;
59872;SDS011;50750;51.636;4.948;2023-04-25T04:38:08;4.20;;;1.50;;
59872;SDS011;50750;51.636;4.948;2023-04-25T04:40:34;3.50;;;1.50;;
59872;SDS011;50750;51.636;4.948;2023-04-25T04:43:00;3.30;;;1.30;;
59872;SDS011;50750;51.636;4.948;2023-04-25T04:45:27;4.60;;;1.40;;
59872;SDS011;50750;51.636;4.948;2023-04-25T04:47:54;4.30;;;1.50;;
59872;SDS011;50750;51.636;4.948;2023-04-25T04:50:21;4.40;;;1.60;;
59872;SDS011;50750;51.636;4.948;2023-04-25T04:52:48;4.70;;;1.60;;
59872;SDS011;50750;51.636;4.948;2023-04-25T04:55:14;4.50;;;1.70;;
59872;SDS011;50750;51.636;4.948;2023-04-25T04:57:40;4.30;;;1.60;;
59872;SDS011;50750;51.636;4.948;2023-04-25T05:00:07;3.60;;;1.40;;
59872;SDS011;50750;51.636;4.948;2023-04-25T05:02:37;3.70;;;1.40;;
59872;SDS011;50750;51.636;4.948;2023-04-25T05:05:04;4.70;;;1.40;;
59872;SDS011;50750;51.636;4.948;2023-04-25T05:07:31;3.10;;;1.50;;
59872;SDS011;50750;51.636;4.948;2023-04-25T05:09:58;3.70;;;1.50;;
59872;SDS011;50750;51.636;4.948;2023-04-25T05:12:24;3.20;;;1.30;;
59872;SDS011;50750;51.636;4.948;2023-04-25T05:14:51;4.10;;;2.00;;
59872;SDS011;50750;51.636;4.948;2023-04-25T05:17:17;4.90;;;1.70;;
59872;SDS011;50750;51.636;4.948;2023-04-25T05:19:44;3.20;;;1.50;;
59872;SDS011;50750;51.636;4.948;2023-04-25T05:22:11;3.60;;;1.30;;
59872;SDS011;50750;51.636;4.948;2023-04-25T05:24:37;3.90;;;1.40;;
59872;SDS011;50750;51.636;4.948;2023-04-25T05:27:04;4.40;;;1.70;;
59872;SDS011;50750;51.636;4.948;2023-04-25T05:29:31;3.10;;;1.40;;
59872;SDS011;50750;51.636;4.948;2023-04-25T05:31:58;3.50;;;1.30;;
59872;SDS011;50750;51.636;4.948;2023-04-25T05:34:24;4.00;;;1.50;;
59872;SDS011;50750;51.636;4.948;2023-04-25T05:36:51;3.80;;;1.50;;
59872;SDS011;50750;51.636;4.948;2023-04-25T05:39:17;3.40;;;1.40;;
59872;SDS011;50750;51.636;4.948;2023-04-25T05:41:44;4.30;;;1.50;;
59872;SDS011;50750;51.636;4.948;2023-04-25T05:44:11;3.70;;;1.50;;
59872;SDS011;50750;51.636;4.948;2023-04-25T05:46:37;3.60;;;1.50;;
59872;SDS011;50750;51.636;4.948;2023-04-25T05:49:04;4.50;;;1.30;;
59872;SDS011;50750;51.636;4.948;2023-04-25T05:51:30;3.70;;;1.20;;
59872;SDS011;50750;51.636;4.948;2023-04-25T05:53:57;3.20;;;1.30;;
59872;SDS011;50750;51.636;4.948;2023-04-25T05:56:24;4.00;;;1.50;;
59872;SDS011;50750;51.636;4.948;2023-04-25T05:58:51;3.30;;;1.30;;
59872;SDS011;50750;51.636;4.948;2023-04-25T06:01:17;4.10;;;1.40;;
59872;SDS011;50750;51.636;4.948;2023-04-25T06:03:43;3.30;;;1.50;;
59872;SDS011;50750;51.636;4.948;2023-04-25T06:06:11;5.80;;;2.00;;
59872;SDS011;50750;51.636;4.948;2023-04-25T06:08:38;3.90;;;1.30;;
59872;SDS011;50750;51.636;4.948;2023-04-25T06:11:04;2.80;;;1.60;;
59872;SDS011;50750;51.636;4.948;2023-04-25T06:13:31;3.40;;;1.40;;
59872;SDS011;50750;51.636;4.948;2023-04-25T06:15:58;3.10;;;1.20;;
59872;SDS011;50750;51.636;4.948;2023-04-25T06:18:24;2.80;;;1.10;;
59872;SDS011;50750;51.636;4.948;2023-04-25T06:20:51;3.90;;;1.20;;
59872;SDS011;50750;51.636;4.948;2023-04-25T06:23:17;2.40;;;1.20;;
59872;SDS011;50750;51.636;4.948;2023-04-25T06:25:44;3.70;;;1.40;;
59872;SDS011;50750;51.636;4.948;2023-04-25T06:28:10;2.60;;;1.40;;
59872;SDS011;50750;51.636;4.948;2023-04-25T06:30:37;3.40;;;1.30;;
59872;SDS011;50750;51.636;4.948;2023-04-25T06:33:04;4.40;;;1.30;;
59872;SDS011;50750;51.636;4.948;2023-04-25T06:35:31;3.90;;;1.50;;
59872;SDS011;50750;51.636;4.948;2023-04-25T06:37:57;3.50;;;1.30;;
59872;SDS011;50750;51.636;4.948;2023-04-25T06:40:24;3.40;;;1.40;;
59872;SDS011;50750;51.636;4.948;2023-04-25T06:42:50;4.50;;;1.20;;
59872;SDS011;50750;51.636;4.948;2023-04-25T06:45:17;3.50;;;1.10;;
59872;SDS011;50750;51.636;4.948;2023-04-25T06:47:44;2.70;;;1.20;;
59872;SDS011;50750;51.636;4.948;2023-04-25T06:50:10;2.50;;;1.20;;
59872;SDS011;50750;51.636;4.948;2023-04-25T06:52:37;2.80;;;1.20;;
59872;SDS011;50750;51.636;4.948;2023-04-25T06:55:03;3.80;;;1.60;;
59872;SDS011;50750;51.636;4.948;2023-04-25T06:57:31;4.00;;;1.40;;
59872;SDS011;50750;51.636;4.948;2023-04-25T06:59:58;3.40;;;1.20;;
59872;SDS011;50750;51.636;4.948;2023-04-25T07:02:24;3.80;;;1.40;;
59872;SDS011;50750;51.636;4.948;2023-04-25T07:04:51;4.00;;;1.20;;
59872;SDS011;50750;51.636;4.948;2023-04-25T07:07:18;2.50;;;1.20;;
59872;SDS011;50750;51.636;4.948;2023-04-25T07:09:44;4.20;;;1.40;;
59872;SDS011;50750;51.636;4.948;2023-04-25T07:12:11;3.10;;;1.30;;
59872;SDS011;50750;51.636;4.948;2023-04-25T07:14:38;3.40;;;1.20;;
59872;SDS011;50750;51.636;4.948;2023-04-25T07:17:05;3.10;;;1.20;;
59872;SDS011;50750;51.636;4.948;2023-04-25T07:19:32;3.40;;;1.30;;
59872;SDS011;50750;51.636;4.948;2023-04-25T07:21:59;3.00;;;1.20;;
59872;SDS011;50750;51.636;4.948;2023-04-25T07:24:26;4.50;;;1.60;;
59872;SDS011;50750;51.636;4.948;2023-04-25T07:26:53;3.40;;;1.20;;
59872;SDS011;50750;51.636;4.948;2023-04-25T07:29:19;3.40;;;1.30;;
59872;SDS011;50750;51.636;4.948;2023-04-25T07:31:46;2.90;;;1.20;;
59872;SDS011;50750;51.636;4.948;2023-04-25T07:34:12;3.30;;;1.30;;
59872;SDS011;50750;51.636;4.948;2023-04-25T07:36:38;4.10;;;1.80;;
59872;SDS011;50750;51.636;4.948;2023-04-25T07:39:06;3.50;;;1.30;;
59872;SDS011;50750;51.636;4.948;2023-04-25T07:41:33;3.90;;;1.40;;
59872;SDS011;50750;51.636;4.948;2023-04-25T07:43:59;4.00;;;1.20;;
59872;SDS011;50750;51.636;4.948;2023-04-25T07:46:26;4.70;;;1.40;;
59872;SDS011;50750;51.636;4.948;2023-04-25T07:48:53;3.20;;;1.30;;
59872;SDS011;50750;51.636;4.948;2023-04-25T07:51:19;3.50;;;1.10;;
59872;SDS011;50750;51.636;4.948;2023-04-25T07:53:47;3.40;;;1.40;;
59872;SDS011;50750;51.636;4.948;2023-04-25T07:56:13;4.20;;;1.10;;
59872;SDS011;50750;51.636;4.948;2023-04-25T07:58:40;4.00;;;1.30;;
59872;SDS011;50750;51.636;4.948;2023-04-25T08:01:06;3.80;;;1.20;;
59872;SDS011;50750;51.636;4.948;2023-04-25T08:03:33;3.50;;;1.10;;
59872;SDS011;50750;51.636;4.948;2023-04-25T08:06:00;3.90;;;1.20;;
59872;SDS011;50750;51.636;4.948;2023-04-25T08:08:26;4.10;;;1.10;;
59872;SDS011;50750;51.636;4.948;2023-04-25T08:10:52;3.10;;;1.40;;
59872;SDS011;50750;51.636;4.948;2023-04-25T08:13:19;3.20;;;1.20;;
59872;SDS011;50750;51.636;4.948;2023-04-25T08:15:46;3.80;;;1.20;;
59872;SDS011;50750;51.636;4.948;2023-04-25T08:18:12;2.10;;;0.90;;
59872;SDS011;50750;51.636;4.948;2023-04-25T08:20:39;2.90;;;1.10;;
59872;SDS011;50750;51.636;4.948;2023-04-25T08:23:06;3.90;;;1.20;;
59872;SDS011;50750;51.636;4.948;2023-04-25T08:25:33;3.10;;;1.20;;
59872;SDS011;50750;51.636;4.948;2023-04-25T08:28:00;4.70;;;1.00;;
59872;SDS011;50750;51.636;4.948;2023-04-25T08:30:29;3.00;;;1.10;;
59872;SDS011;50750;51.636;4.948;2023-04-25T08:32:56;3.30;;;1.00;;
59872;SDS011;50750;51.636;4.948;2023-04-25T08:35:23;3.20;;;1.00;;
59872;SDS011;50750;51.636;4.948;2023-04-25T08:37:49;3.10;;;1.20;;
59872;SDS011;50750;51.636;4.948;2023-04-25T08:40:16;3.60;;;0.90;;
59872;SDS011;50750;51.636;4.948;2023-04-25T08:42:42;3.00;;;1.10;;
59872;SDS011;50750;51.636;4.948;2023-04-25T08:45:09;2.40;;;0.90;;
59872;SDS011;50750;51.636;4.948;2023-04-25T08:47:37;4.20;;;1.10;;
59872;SDS011;50750;51.636;4.948;2023-04-25T08:50:04;3.50;;;1.20;;
59872;SDS011;50750;51.636;4.948;2023-04-25T08:52:35;3.00;;;1.20;;
59872;SDS011;50750;51.636;4.948;2023-04-25T08:55:04;2.10;;;0.80;;
59872;SDS011;50750;51.636;4.948;2023-04-25T08:57:33;2.70;;;1.20;;
59872;SDS011;50750;51.636;4.948;2023-04-25T08:59:59;2.90;;;1.10;;
59872;SDS011;50750;51.636;4.948;2023-04-25T09:02:27;3.00;;;1.10;;
59872;SDS011;50750;51.636;4.948;2023-04-25T09:04:55;2.90;;;1.20;;
59872;SDS011;50750;51.636;4.948;2023-04-25T09:07:22;2.40;;;1.00;;
59872;SDS011;50750;51.636;4.948;2023-04-25T09:09:49;2.80;;;1.10;;
59872;SDS011;50750;51.636;4.948;2023-04-25T09:12:17;3.30;;;1.10;;
59872;SDS011;50750;51.636;4.948;2023-04-25T09:15:05;2.90;;;1.00;;
59872;SDS011;50750;51.636;4.948;2023-04-25T09:17:36;2.60;;;0.90;;
59872;SDS011;50750;51.636;4.948;2023-04-25T09:20:07;3.40;;;1.00;;
59872;SDS011;50750;51.636;4.948;2023-04-25T09:22:36;3.10;;;1.10;;
59872;SDS011;50750;51.636;4.948;2023-04-25T09:25:07;2.90;;;1.00;;
59872;SDS011;50750;51.636;4.948;2023-04-25T09:27:35;2.70;;;1.10;;
59872;SDS011;50750;51.636;4.948;2023-04-25T09:30:02;3.70;;;1.10;;
59872;SDS011;50750;51.636;4.948;2023-04-25T09:32:29;3.60;;;1.00;;
59872;SDS011;50750;51.636;4.948;2023-04-25T09:34:56;4.20;;;1.00;;
59872;SDS011;50750;51.636;4.948;2023-04-25T09:37:24;3.90;;;1.10;;
59872;SDS011;50750;51.636;4.948;2023-04-25T09:39:56;2.90;;;1.10;;
59872;SDS011;50750;51.636;4.948;2023-04-25T09:42:26;1.80;;;0.80;;
59872;SDS011;50750;51.636;4.948;2023-04-25T09:44:55;2.60;;;0.90;;
59872;SDS011;50750;51.636;4.948;2023-04-25T09:47:23;2.40;;;1.10;;
59872;SDS011;50750;51.636;4.948;2023-04-25T09:49:51;3.50;;;1.10;;
59872;SDS011;50750;51.636;4.948;2023-04-25T09:52:19;3.20;;;1.20;;
59872;SDS011;50750;51.636;4.948;2023-04-25T09:54:47;3.10;;;1.10;;
59872;SDS011;50750;51.636;4.948;2023-04-25T09:57:18;3.40;;;1.00;;
59872;SDS011;50750;51.636;4.948;2023-04-25T09:59:49;2.80;;;0.90;;
59872;SDS011;50750;51.636;4.948;2023-04-25T10:02:18;3.70;;;1.10;;
59872;SDS011;50750;51.636;4.948;2023-04-25T10:04:50;2.10;;;0.70;;
59872;SDS011;50750;51.636;4.948;2023-04-25T10:07:19;2.70;;;0.90;;
59872;SDS011;50750;51.636;4.948;2023-04-25T10:09:47;3.80;;;1.00;;
59872;SDS011;50750;51.636;4.948;2023-04-25T10:12:18;4.60;;;1.20;;
59872;SDS011;50750;51.636;4.948;2023-04-25T10:14:46;3.10;;;0.80;;
59872;SDS011;50750;51.636;4.948;2023-04-25T10:17:13;2.20;;;0.80;;
59872;SDS011;50750;51.636;4.948;2023-04-25T10:19:40;3.40;;;0.90;;
59872;SDS011;50750;51.636;4.948;2023-04-25T10:22:08;4.60;;;0.90;;
59872;SDS011;50750;51.636;4.948;2023-04-25T10:24:41;2.90;;;1.00;;
59872;SDS011;50750;51.636;4.948;2023-04-25T10:27:08;3.00;;;1.00;;
59872;SDS011;50750;51.636;4.948;2023-04-25T10:29:35;2.70;;;1.00;;
59872;SDS011;50750;51.636;4.948;2023-04-25T10:32:02;3.00;;;1.10;;
59872;SDS011;50750;51.636;4.948;2023-04-25T10:34:39;3.30;;;0.80;;
59872;SDS011;50750;51.636;4.948;2023-04-25T10:37:10;2.90;;;0.80;;
59872;SDS011;50750;51.636;4.948;2023-04-25T10:39:38;2.30;;;0.90;;
59872;SDS011;50750;51.636;4.948;2023-04-25T10:42:07;4.20;;;0.80;;
59872;SDS011;50750;51.636;4.948;2023-04-25T10:44:34;3.10;;;0.90;;
59872;SDS011;50750;51.636;4.948;2023-04-25T10:47:03;2.40;;;0.80;;
59872;SDS011;50750;51.636;4.948;2023-04-25T10:49:37;4.00;;;0.90;;
59872;SDS011;50750;51.636;4.948;2023-04-25T10:52:11;4.10;;;0.90;;
59872;SDS011;50750;51.636;4.948;2023-04-25T10:54:57;3.40;;;0.80;;
59872;SDS011;50750;51.636;4.948;2023-04-25T10:57:31;2.40;;;0.80;;
59872;SDS011;50750;51.636;4.948;2023-04-25T11:02:31;2.70;;;0.90;;
59872;SDS011;50750;51.636;4.948;2023-04-25T11:04:58;3.30;;;0.90;;
59872;SDS011;50750;51.636;4.948;2023-04-25T11:07:29;2.50;;;0.70;;
59872;SDS011;50750;51.636;4.948;2023-04-25T11:10:03;2.80;;;0.90;;
59872;SDS011;50750;51.636;4.948;2023-04-25T11:12:31;2.20;;;0.90;;
59872;SDS011;50750;51.636;4.948;2023-04-25T11:15:01;3.40;;;1.00;;
59872;SDS011;50750;51.636;4.948;2023-04-25T11:17:30;2.70;;;0.80;;
59872;SDS011;50750;51.636;4.948;2023-04-25T11:19:57;3.20;;;0.80;;
59872;SDS011;50750;51.636;4.948;2023-04-25T11:22:23;2.80;;;0.70;;
59872;SDS011;50750;51.636;4.948;2023-04-25T11:24:50;2.50;;;1.00;;
59872;SDS011;50750;51.636;4.948;2023-04-25T11:27:17;4.50;;;1.00;;
59872;SDS011;50750;51.636;4.948;2023-04-25T11:29:44;2.80;;;0.80;;
59872;SDS011;50750;51.636;4.948;2023-04-25T11:32:11;1.90;;;0.80;;
59872;SDS011;50750;51.636;4.948;2023-04-25T11:34:37;3.00;;;0.90;;
59872;SDS011;50750;51.636;4.948;2023-04-25T11:37:03;2.80;;;0.80;;
59872;SDS011;50750;51.636;4.948;2023-04-25T11:39:30;3.10;;;0.90;;
59872;SDS011;50750;51.636;4.948;2023-04-25T11:41:57;4.00;;;1.00;;
59872;SDS011;50750;51.636;4.948;2023-04-25T11:44:24;2.20;;;0.90;;
59872;SDS011;50750;51.636;4.948;2023-04-25T11:46:50;3.70;;;0.90;;
59872;SDS011;50750;51.636;4.948;2023-04-25T11:49:17;3.80;;;0.80;;
59872;SDS011;50750;51.636;4.948;2023-04-25T11:51:45;2.60;;;0.80;;
59872;SDS011;50750;51.636;4.948;2023-04-25T11:54:13;1.70;;;0.70;;
59872;SDS011;50750;51.636;4.948;2023-04-25T11:56:41;2.70;;;0.90;;
59872;SDS011;50750;51.636;4.948;2023-04-25T11:59:08;3.10;;;0.70;;
59872;SDS011;50750;51.636;4.948;2023-04-25T12:01:36;2.50;;;0.80;;
59872;SDS011;50750;51.636;4.948;2023-04-25T12:04:14;2.00;;;0.80;;
59872;SDS011;50750;51.636;4.948;2023-04-25T12:06:42;4.10;;;0.70;;
59872;SDS011;50750;51.636;4.948;2023-04-25T12:09:14;2.90;;;0.90;;
59872;SDS011;50750;51.636;4.948;2023-04-25T12:11:44;2.00;;;0.70;;
59872;SDS011;50750;51.636;4.948;2023-04-25T12:14:19;2.60;;;0.70;;
59872;SDS011;50750;51.636;4.948;2023-04-25T12:17:07;2.90;;;0.90;;
59872;SDS011;50750;51.636;4.948;2023-04-25T12:19:36;2.50;;;0.70;;
59872;SDS011;50750;51.636;4.948;2023-04-25T12:22:19;2.60;;;0.70;;
59872;SDS011;50750;51.636;4.948;2023-04-25T12:24:50;2.80;;;0.80;;
59872;SDS011;50750;51.636;4.948;2023-04-25T12:27:17;3.20;;;1.30;;
59872;SDS011;50750;51.636;4.948;2023-04-25T12:29:51;2.40;;;0.80;;
59872;SDS011;50750;51.636;4.948;2023-04-25T12:32:19;4.60;;;0.90;;
59872;SDS011;50750;51.636;4.948;2023-04-25T12:34:46;2.50;;;0.80;;
59872;SDS011;50750;51.636;4.948;2023-04-25T12:37:13;2.80;;;0.80;;
59872;SDS011;50750;51.636;4.948;2023-04-25T12:39:40;3.30;;;1.00;;
59872;SDS011;50750;51.636;4.948;2023-04-25T12:42:06;2.70;;;0.80;;
59872;SDS011;50750;51.636;4.948;2023-04-25T12:44:39;2.10;;;0.80;;
59872;SDS011;50750;51.636;4.948;2023-04-25T12:47:06;2.10;;;0.80;;
59872;SDS011;50750;51.636;4.948;2023-04-25T12:49:33;3.70;;;0.90;;
59872;SDS011;50750;51.636;4.948;2023-04-25T12:51:59;3.30;;;0.90;;
59872;SDS011;50750;51.636;4.948;2023-04-25T12:54:26;1.60;;;0.70;;
59872;SDS011;50750;51.636;4.948;2023-04-25T12:56:52;3.10;;;0.80;;
59872;SDS011;50750;51.636;4.948;2023-04-25T12:59:19;2.90;;;0.80;;
59872;SDS011;50750;51.636;4.948;2023-04-25T13:01:47;3.30;;;0.80;;
59872;SDS011;50750;51.636;4.948;2023-04-25T13:04:13;3.40;;;1.00;;
59872;SDS011;50750;51.636;4.948;2023-04-25T13:06:40;3.00;;;0.80;;
59872;SDS011;50750;51.636;4.948;2023-04-25T13:09:06;3.30;;;0.90;;
59872;SDS011;50750;51.636;4.948;2023-04-25T13:11:33;2.90;;;0.90;;
59872;SDS011;50750;51.636;4.948;2023-04-25T13:14:00;2.80;;;0.80;;
59872;SDS011;50750;51.636;4.948;2023-04-25T13:16:27;3.30;;;0.80;;
59872;SDS011;50750;51.636;4.948;2023-04-25T13:18:53;5.20;;;1.00;;
59872;SDS011;50750;51.636;4.948;2023-04-25T13:21:22;3.50;;;0.80;;
59872;SDS011;50750;51.636;4.948;2023-04-25T13:23:48;4.00;;;1.00;;
59872;SDS011;50750;51.636;4.948;2023-04-25T13:26:15;1.50;;;0.60;;
59872;SDS011;50750;51.636;4.948;2023-04-25T13:28:42;3.10;;;0.90;;
59872;SDS011;50750;51.636;4.948;2023-04-25T13:31:09;2.20;;;0.70;;
59872;SDS011;50750;51.636;4.948;2023-04-25T13:33:36;3.00;;;0.80;;
59872;SDS011;50750;51.636;4.948;2023-04-25T13:36:02;3.50;;;0.80;;
59872;SDS011;50750;51.636;4.948;2023-04-25T13:38:29;2.80;;;0.80;;
59872;SDS011;50750;51.636;4.948;2023-04-25T13:40:55;2.50;;;0.80;;
59872;SDS011;50750;51.636;4.948;2023-04-25T13:43:22;3.50;;;0.90;;
59872;SDS011;50750;51.636;4.948;2023-04-25T13:45:49;2.10;;;0.80;;
59872;SDS011;50750;51.636;4.948;2023-04-25T13:48:17;2.30;;;0.80;;
59872;SDS011;50750;51.636;4.948;2023-04-25T13:50:45;3.90;;;0.80;;
59872;SDS011;50750;51.636;4.948;2023-04-25T13:53:11;2.20;;;0.80;;
59872;SDS011;50750;51.636;4.948;2023-04-25T13:55:38;4.00;;;0.90;;
59872;SDS011;50750;51.636;4.948;2023-04-25T13:58:05;2.60;;;0.80;;
59872;SDS011;50750;51.636;4.948;2023-04-25T14:00:34;5.40;;;0.90;;
59872;SDS011;50750;51.636;4.948;2023-04-25T14:03:03;2.90;;;0.80;;
59872;SDS011;50750;51.636;4.948;2023-04-25T14:05:33;1.80;;;0.70;;
59872;SDS011;50750;51.636;4.948;2023-04-25T14:08:04;3.00;;;0.70;;
59872;SDS011;50750;51.636;4.948;2023-04-25T14:10:32;3.00;;;1.00;;
59872;SDS011;50750;51.636;4.948;2023-04-25T14:12:59;3.30;;;0.70;;
59872;SDS011;50750;51.636;4.948;2023-04-25T14:15:26;5.40;;;0.80;;
59872;SDS011;50750;51.636;4.948;2023-04-25T14:17:53;2.30;;;0.70;;
59872;SDS011;50750;51.636;4.948;2023-04-25T14:20:19;3.10;;;0.80;;
59872;SDS011;50750;51.636;4.948;2023-04-25T14:22:47;2.90;;;0.90;;
59872;SDS011;50750;51.636;4.948;2023-04-25T14:25:13;7.30;;;1.40;;
59872;SDS011;50750;51.636;4.948;2023-04-25T14:27:40;2.80;;;0.90;;
59872;SDS011;50750;51.636;4.948;2023-04-25T14:30:07;3.10;;;0.90;;
59872;SDS011;50750;51.636;4.948;2023-04-25T14:32:35;2.40;;;0.90;;
59872;SDS011;50750;51.636;4.948;2023-04-25T14:35:02;1.70;;;0.60;;
59872;SDS011;50750;51.636;4.948;2023-04-25T14:37:28;4.80;;;1.00;;
59872;SDS011;50750;51.636;4.948;2023-04-25T14:39:55;2.40;;;0.80;;
59872;SDS011;50750;51.636;4.948;2023-04-25T14:42:22;3.50;;;0.90;;
59872;SDS011;50750;51.636;4.948;2023-04-25T14:44:48;3.70;;;1.00;;
59872;SDS011;50750;51.636;4.948;2023-04-25T14:47:15;2.00;;;0.80;;
59872;SDS011;50750;51.636;4.948;2023-04-25T14:49:42;3.60;;;0.80;;
59872;SDS011;50750;51.636;4.948;2023-04-25T14:52:08;2.20;;;0.70;;